Coeur D'Alene - Pappy Boyington Field
KCOE : now visible

Airfield :











YOU CAN JOIN US ON...

 
LOGIN :

Register | Disclaimer

   EN    FR    IT 

 









Legend :    VFR   Marginal VFR   IFR   Intensive IFR   Very Intensive IFR
Visi :
Ceiling :
>= 8 km
>= 3000ft
5 to 8 km
1000 to 3000 ft
1500m to 5 km
500 to 1000 ft
800 to 1500m
200 to 500 ft
< 800m
< 200 ft
Symbols :   Thunderstorms  Fog  Heavy snow  Heavy precipitations  Wind > 20 kt







- Airport Elevation : 2320 ft


KCOE - Coeur D'Alene - Pappy Boyington Field

CURRENT METAR :
  • 200756Z AUTO 04007KT 10SM SCT120 07/01 A2977 RMK AO2 SLP097 T00720006 401780067

EXPIRED METARs :
  • 200656Z AUTO 02010KT 10SM CLR 08/01 A2977 RMK AO2 SLP097 T00830006
  • 200556Z AUTO 03009KT 10SM CLR 09/01 A2977 RMK AO2 SLP098 T00890011 10172 20089 51009

TAF KCOE
Valid from the 20 at 06:00 until the 21 at 06:00 UTC


200538Z 2006/2106 03011KT P6SM SCT060 BKN200 WS020/11038KT
FM201000 02011KT P6SM SCT060 BKN200
FM201500 03015G20KT P6SM BKN060 BKN100
FM202100 03013KT P6SM VCSH BKN060 BKN180
KZSE FIR / North America



MET'MAP, your aeronautical weather chart ! - Copyright ORBIFLY December 2007 - Disclaimer

ORBIFLY MET'MAP TEAM :

Programming & Development : Alexandra Zaïnal
Concept & Development : Baudouin d'Aumeries
Co-Development & Prog : Marc-Olivier Méhu
Technical & hardware support : Manuel Goepfert

Contact : metmap@orbifly.com




SOURCES & CREDITS :

   NOAA       Earth
Advisory